Time;durP1;ratioP1;P1;durP2;ratioP2;P2;SDS_P1;SDS_P2;PMS_P1;PMS_P2;Temp;Humidity;BMP_temperature;BMP_pressure;BME280_temperature;BME280_humidity;BME280_pressure;Samples;Min_cycle;Max_cycle;Signal;HPM_P1;HPM_P2
2023/10/09 04:44:29;;;;;;;;;11.75;7.50;;;;;27.33;39.99;101805.56;5077070;28;45215;-75
2023/10/09 04:55:14;;;;;;;;;7.75;6.00;;;;;27.42;40.36;101799.16;5069488;28;45254;-75
2023/10/09 05:02:56;;;;;;;;;12.25;7.75;;;;;27.54;40.12;101810.84;5077260;28;45280;-75
2023/10/09 05:08:45;;;;;;;;;15.25;9.00;;;;;27.53;40.02;101814.59;5077023;28;45343;-74
2023/10/09 05:16:28;;;;;;;;;9.25;7.75;;;;;27.66;40.23;101828.00;5076607;28;45239;-75
2023/10/09 05:19:28;;;;;;;;;14.50;13.00;;;;;27.62;40.04;101834.88;5076741;28;46684;-74
2023/10/09 05:21:53;;;;;;;;;10.75;9.25;;;;;27.60;40.49;101829.50;5076682;28;45402;-74
2023/10/09 05:24:19;;;;;;;;;5.00;0.50;;;;;27.59;40.06;101832.41;5058920;28;45358;-76
2023/10/09 05:37:33;;;;;;;;;9.25;8.00;;;;;27.41;40.05;101816.69;5077896;28;45455;-77
2023/10/09 05:48:07;;;;;;;;;10.00;9.00;;;;;27.53;40.05;101839.38;5059271;28;45239;-82
2023/10/09 05:50:35;;;;;;;;;8.75;8.75;;;;;27.49;40.27;101837.94;5079961;27;46164;-79
2023/10/09 06:04:33;;;;;;;;;9.50;7.75;;;;;27.58;40.26;101844.47;5038225;28;45536;-77
2023/10/09 06:06:44;;;;;;;;;9.25;8.75;;;;;27.57;40.05;101846.34;5073010;28;45292;-81
2023/10/09 06:11:49;;;;;;;;;12.75;9.75;;;;;27.46;40.16;101844.66;5075925;28;45629;-80
2023/10/09 06:14:25;;;;;;;;;12.25;11.00;;;;;27.51;40.61;101841.44;5075696;28;45471;-77
2023/10/09 06:19:27;;;;;;;;;13.00;10.00;;;;;27.45;40.26;101836.53;5075965;28;45303;-78
2023/10/09 06:24:42;;;;;;;;;10.25;10.00;;;;;27.29;40.06;101831.69;5071693;27;45189;-81
2023/10/09 06:45:54;;;;;;;;;9.75;9.50;;;;;27.23;40.56;101862.56;5074637;27;45558;-80
2023/10/09 06:59:04;;;;;;;;;13.00;11.75;;;;;27.33;40.48;101860.66;5069619;28;45414;-79
2023/10/09 07:01:42;;;;;;;;;12.25;9.75;;;;;27.46;40.90;101868.56;5074665;28;45532;-77
2023/10/09 07:06:56;;;;;;;;;11.00;11.00;;;;;27.42;40.53;101854.22;5074792;28;45420;-76
2023/10/09 07:09:22;;;;;;;;;9.75;9.75;;;;;27.47;40.53;101854.66;5075149;28;45571;-79
2023/10/09 07:17:15;;;;;;;;;11.75;10.75;;;;;27.46;40.30;101863.94;5079389;27;45311;-78
2023/10/09 07:24:58;;;;;;;;;11.75;9.25;;;;;27.38;40.12;101866.59;5076835;28;45395;-80
2023/10/09 07:38:09;;;;;;;;;10.25;10.25;;;;;27.42;39.98;101870.75;5074912;28;45366;-79
2023/10/09 07:43:28;;;;;;;;;10.50;10.50;;;;;27.47;40.32;101868.44;5075049;28;45366;-80
2023/10/09 07:46:30;;;;;;;;;11.75;11.00;;;;;27.40;40.34;101869.16;5074149;28;46386;-80
2023/10/09 07:48:52;;;;;;;;;14.00;13.00;;;;;27.59;39.70;101873.75;5062384;28;45312;-80
2023/10/09 07:51:19;;;;;;;;;11.75;10.50;;;;;27.66;39.58;101878.47;5077620;28;45544;-79
2023/10/09 07:53:45;;;;;;;;;17.25;12.50;;;;;27.74;39.13;101883.22;5075990;27;45285;-80
2023/10/09 07:56:21;;;;;;;;;10.25;10.25;;;;;27.77;39.11;101878.28;5079841;27;45512;-80
2023/10/09 07:58:51;;;;;;;;;12.25;10.25;;;;;27.85;39.37;101869.22;5075229;28;45188;-79
2023/10/09 08:01:23;;;;;;;;;12.25;12.25;;;;;28.04;39.58;101898.56;5057681;28;45536;-79
2023/10/09 08:03:57;;;;;;;;;11.75;10.75;;;;;28.07;39.19;101890.00;5056954;28;46052;-78
2023/10/09 08:06:38;;;;;;;;;11.75;11.75;;;;;28.18;39.26;101901.66;5074477;27;45315;-77
2023/10/09 08:17:15;;;;;;;;;16.00;11.50;;;;;28.24;38.43;101906.56;5073600;28;45835;-80
2023/10/09 08:19:54;;;;;;;;;14.50;13.75;;;;;28.29;38.02;101902.47;5073709;28;45409;-78
2023/10/09 08:24:56;;;;;;;;;18.25;17.25;;;;;28.34;38.13;101894.56;5076790;27;45497;-78
2023/10/09 08:32:40;;;;;;;;;15.75;15.75;;;;;28.51;37.37;101902.84;5073873;28;45509;-75
2023/10/09 08:35:29;;;;;;;;;16.75;14.75;;;;;28.56;37.83;101905.16;5073703;28;45461;-77
2023/10/09 08:37:52;;;;;;;;;15.00;14.25;;;;;28.70;37.30;101918.38;5073550;28;46197;-79
2023/10/09 08:40:21;;;;;;;;;13.75;13.25;;;;;28.70;37.76;101917.50;5073754;28;45454;-77
2023/10/09 08:42:53;;;;;;;;;20.50;16.75;;;;;28.75;37.90;101915.13;5074054;28;45420;-77
2023/10/09 08:45:24;;;;;;;;;14.00;12.25;;;;;28.77;37.66;101924.13;5073854;27;45498;-77
2023/10/09 08:47:54;;;;;;;;;19.75;16.00;;;;;28.80;37.26;101923.81;5075507;27;46450;-78
2023/10/09 08:50:20;;;;;;;;;18.50;17.00;;;;;28.72;37.26;101919.09;5073625;28;45322;-76
2023/10/09 08:52:48;;;;;;;;;19.00;16.00;;;;;28.72;36.75;101921.84;5073393;28;45513;-78
2023/10/09 08:55:16;;;;;;;;;20.25;16.75;;;;;28.75;36.73;101926.19;5047599;28;45683;-78
2023/10/09 08:57:44;;;;;;;;;21.00;18.25;;;;;28.79;37.12;101924.84;5073737;27;47158;-77
2023/10/09 09:00:21;;;;;;;;;17.00;16.25;;;;;28.81;36.45;101928.31;5073526;28;45340;-77
2023/10/09 09:02:47;;;;;;;;;15.25;13.50;;;;;28.84;36.51;101928.84;5077533;28;45422;-77
2023/10/09 09:05:23;;;;;;;;;14.25;14.25;;;;;28.94;36.61;101923.25;5077274;28;45476;-77
2023/10/09 09:07:49;;;;;;;;;16.25;13.25;;;;;28.89;35.75;101926.50;5076801;28;46050;-77
2023/10/09 09:10:17;;;;;;;;;12.25;12.25;;;;;28.93;36.13;101919.59;5077047;28;45555;-77
2023/10/09 09:12:46;;;;;;;;;15.00;12.00;;;;;29.07;35.96;101920.94;5077093;28;45353;-78
2023/10/09 09:15:19;;;;;;;;;15.25;14.25;;;;;28.98;35.79;101906.19;5076698;28;45335;-78
2023/10/09 09:17:45;;;;;;;;;15.00;13.50;;;;;28.91;35.40;101920.81;5076682;28;46123;-78
2023/10/09 09:20:30;;;;;;;;;16.00;14.00;;;;;28.91;35.49;101927.22;5058279;28;45744;-78
2023/10/09 09:22:56;;;;;;;;;11.25;11.25;;;;;28.95;34.83;101914.81;5077064;28;45473;-78
2023/10/09 09:25:25;;;;;;;;;10.50;10.50;;;;;29.00;33.64;101925.38;5076762;28;45322;-76
2023/10/09 09:27:54;;;;;;;;;13.00;11.33;;;;;28.90;33.42;101916.31;5058718;28;46576;-76
2023/10/09 09:30:33;;;;;;;;;12.75;11.00;;;;;29.09;33.63;101923.53;5076119;28;45657;-78
2023/10/09 09:34:03;;;;;;;;;12.75;11.75;;;;;28.95;33.13;101905.66;5058409;28;45690;-78
2023/10/09 09:35:58;;;;;;;;;9.50;9.50;;;;;29.01;32.41;101913.28;5062674;28;45482;-77
2023/10/09 09:38:27;;;;;;;;;3.00;2.75;;;;;29.01;32.28;101920.72;5076311;28;45334;-75
2023/10/09 09:40:56;;;;;;;;;8.25;6.50;;;;;29.13;31.97;101922.16;5076301;27;45368;-75
2023/10/09 09:43:22;;;;;;;;;11.50;11.50;;;;;29.04;30.96;101909.34;5076372;28;45323;-76
2023/10/09 09:45:50;;;;;;;;;7.00;7.00;;;;;29.04;30.90;101912.97;5075251;27;45550;-77
2023/10/09 09:48:16;;;;;;;;;7.75;6.00;;;;;29.07;31.32;101903.50;5074786;28;46288;-75
2023/10/09 09:50:47;;;;;;;;;10.50;8.25;;;;;29.19;31.92;101902.16;5075919;28;45521;-77
2023/10/09 09:53:17;;;;;;;;;7.75;6.25;;;;;29.31;31.82;101898.13;5076095;27;45365;-76
2023/10/09 09:55:52;;;;;;;;;9.50;7.00;;;;;29.11;29.56;101885.56;5068232;28;45549;-78
2023/10/09 09:58:23;;;;;;;;;9.25;8.00;;;;;29.41;30.89;101917.38;5075935;27;46186;-76
2023/10/09 10:00:55;;;;;;;;;9.25;8.00;;;;;29.51;29.94;101915.34;5075700;28;45801;-75
2023/10/09 10:03:29;;;;;;;;;11.25;8.25;;;;;29.69;30.96;101905.91;5076424;28;45372;-76
2023/10/09 10:05:56;;;;;;;;;10.50;8.75;;;;;29.86;30.25;101912.34;5075783;27;45419;-75
2023/10/09 10:08:31;;;;;;;;;15.00;8.00;;;;;30.03;30.96;101908.66;5076023;28;45469;-78
2023/10/09 10:10:59;;;;;;;;;7.00;7.00;;;;;30.16;30.58;101907.31;5076088;27;45324;-78
2023/10/09 10:13:41;;;;;;;;;7.75;7.75;;;;;30.30;30.61;101913.03;5076015;28;45420;-76
2023/10/09 10:16:20;;;;;;;;;6.50;6.50;;;;;30.49;30.84;101909.06;5075630;27;45257;-77
2023/10/09 10:19:06;;;;;;;;;8.00;7.00;;;;;30.60;30.45;101908.78;5075918;28;46181;-75
2023/10/09 10:21:39;;;;;;;;;6.75;6.00;;;;;30.71;30.50;101899.25;5075984;28;45295;-76
2023/10/09 10:24:30;;;;;;;;;6.00;5.50;;;;;30.87;31.00;101913.09;5075882;28;45391;-76
2023/10/09 10:27:44;;;;;;;;;7.50;7.50;;;;;30.91;29.87;101910.81;5075501;28;45478;-77
2023/10/09 10:30:13;;;;;;;;;6.00;6.00;;;;;31.19;29.50;101912.19;5075520;28;45487;-77
2023/10/09 10:33:09;;;;;;;;;6.00;6.00;;;;;31.25;30.30;101897.63;5075601;28;45188;-77
2023/10/09 10:38:32;;;;;;;;;6.00;6.00;;;;;31.74;29.80;101895.56;5075586;28;45343;-78
2023/10/09 10:41:11;;;;;;;;;7.25;6.75;;;;;31.72;29.08;101891.25;5075849;27;46112;-77
2023/10/09 10:46:37;;;;;;;;;6.25;6.00;;;;;32.06;28.49;101911.19;5074578;27;45391;-77
2023/10/09 10:51:39;;;;;;;;;5.00;5.00;;;;;32.33;28.54;101902.34;5074865;28;45361;-77
2023/10/09 10:57:19;;;;;;;;;5.50;5.50;;;;;32.69;27.53;101890.63;5019965;28;45270;-76
2023/10/09 10:59:45;;;;;;;;;10.50;8.25;;;;;32.97;27.39;101882.56;5074210;28;45336;-78
2023/10/09 11:04:44;;;;;;;;;8.50;5.50;;;;;33.69;26.43;101880.84;5075199;27;45377;-77
2023/10/09 11:07:12;;;;;;;;;8.25;6.75;;;;;34.20;25.92;101874.41;5074806;27;45470;-77
2023/10/09 11:12:42;;;;;;;;;5.00;5.00;;;;;35.04;23.97;101898.59;5075061;28;45178;-77
2023/10/09 11:18:05;;;;;;;;;9.50;5.50;;;;;36.01;23.19;101888.22;5075011;28;45392;-77
2023/10/09 11:20:35;;;;;;;;;6.50;6.50;;;;;36.49;22.50;101892.88;5074918;28;45335;-76
2023/10/09 11:25:50;;;;;;;;;5.00;5.00;;;;;37.29;21.44;101867.47;5074757;28;45442;-78
2023/10/09 11:31:12;;;;;;;;;5.25;5.25;;;;;38.71;19.69;101886.78;5063397;28;45359;-78
2023/10/09 11:33:43;;;;;;;;;4.75;4.75;;;;;38.85;19.91;101893.16;5070943;28;45649;-77
2023/10/09 11:36:09;;;;;;;;;7.00;6.75;;;;;39.29;19.68;101881.75;5074729;28;45418;-78
2023/10/09 11:38:38;;;;;;;;;5.75;5.00;;;;;39.87;18.73;101880.44;5074669;28;45507;-77
2023/10/09 11:41:22;;;;;;;;;4.25;4.25;;;;;40.34;18.44;101876.72;5074672;28;45525;-74
2023/10/09 11:43:52;;;;;;;;;7.25;4.75;;;;;40.80;18.08;101880.78;5074559;28;45413;-75
2023/10/09 11:47:14;;;;;;;;;7.00;7.00;;;;;40.98;17.62;101872.22;5070792;28;45267;-75
2023/10/09 11:52:09;;;;;;;;;6.50;4.50;;;;;41.88;16.06;101872.56;5074303;28;45315;-74
2023/10/09 11:54:31;;;;;;;;;7.00;7.00;;;;;42.77;15.53;101866.41;5065455;28;45313;-75
2023/10/09 11:56:57;;;;;;;;;9.50;7.00;;;;;43.18;15.28;101865.94;5074718;28;45321;-76
2023/10/09 11:59:23;;;;;;;;;4.00;4.00;;;;;43.55;14.58;101857.72;5071265;28;45260;-78
2023/10/09 12:01:52;;;;;;;;;5.00;3.75;;;;;44.24;14.18;101851.47;5073728;27;45385;-80
2023/10/09 12:04:18;;;;;;;;;5.50;5.50;;;;;44.58;13.32;101866.22;5056905;28;47014;-79
2023/10/09 12:06:44;;;;;;;;;6.00;4.25;;;;;44.16;13.72;101834.97;5074438;28;45460;-81
2023/10/09 12:09:23;;;;;;;;;5.75;5.25;;;;;43.81;13.71;101849.56;5074028;28;45418;-81
2023/10/09 12:11:52;;;;;;;;;9.25;5.00;;;;;43.49;13.07;101857.88;5065557;28;45374;-77
2023/10/09 12:14:23;;;;;;;;;5.75;4.50;;;;;43.38;13.75;101851.25;5072494;28;46405;-78
2023/10/09 12:16:49;;;;;;;;;5.75;4.75;;;;;43.47;13.68;101851.66;5074200;28;45303;-75
2023/10/09 12:19:15;;;;;;;;;7.50;7.25;;;;;43.90;13.18;101851.63;5074115;28;45387;-74
2023/10/09 12:21:42;;;;;;;;;5.75;5.75;;;;;44.37;12.93;101834.94;5074127;28;45371;-75
2023/10/09 12:24:11;;;;;;;;;4.50;3.25;;;;;44.54;12.94;101822.63;5073860;28;45357;-76
2023/10/09 12:26:39;;;;;;;;;5.75;4.25;;;;;44.97;13.10;101835.69;5074049;28;45401;-78
2023/10/09 12:29:10;;;;;;;;;6.75;4.50;;;;;45.50;11.85;101826.97;5074171;28;45273;-77
2023/10/09 12:31:36;;;;;;;;;7.50;5.00;;;;;46.07;11.33;101828.84;5073546;28;45484;-75
2023/10/09 12:34:02;;;;;;;;;8.50;5.75;;;;;46.35;11.73;101827.50;5073977;28;45647;-77
2023/10/09 12:36:28;;;;;;;;;5.50;4.75;;;;;46.94;11.45;101826.88;5076635;28;45418;-76
2023/10/09 12:38:58;;;;;;;;;4.00;3.25;;;;;47.46;11.16;101828.47;5059333;28;45239;-78
2023/10/09 12:43:49;;;;;;;;;1.75;1.75;;;;;47.82;11.10;101810.09;5065424;28;45409;-78
2023/10/09 12:46:17;;;;;;;;;4.00;4.00;;;;;48.11;10.79;101810.22;5058588;28;45457;-76
2023/10/09 12:48:47;;;;;;;;;6.50;4.75;;;;;48.06;10.57;101807.38;5077548;28;45386;-77
2023/10/09 12:51:16;;;;;;;;;5.25;4.50;;;;;47.30;11.32;101797.22;5077144;28;45329;-78
2023/10/09 12:53:42;;;;;;;;;6.00;5.00;;;;;46.60;12.27;101806.75;5073391;28;45502;-77
2023/10/09 12:56:07;;;;;;;;;5.75;5.00;;;;;45.58;12.19;101800.09;5072858;28;45487;-76
2023/10/09 12:58:37;;;;;;;;;5.75;4.00;;;;;44.83;12.49;101799.38;5077016;28;45450;-77
2023/10/09 13:01:09;;;;;;;;;6.75;5.00;;;;;44.19;12.31;101795.72;5058800;28;46161;-75
2023/10/09 13:03:38;;;;;;;;;5.25;3.75;;;;;43.67;12.82;101793.47;5055580;28;48099;-77
2023/10/09 13:06:07;;;;;;;;;9.00;5.00;;;;;43.74;13.12;101790.41;5070092;28;45480;-75
2023/10/09 13:08:36;;;;;;;;;4.00;4.00;;;;;44.02;13.17;101803.47;5068478;28;45257;-76
2023/10/09 13:11:10;;;;;;;;;4.50;4.25;;;;;43.84;12.84;101792.50;5076271;28;45467;-77
2023/10/09 13:13:47;;;;;;;;;6.50;5.75;;;;;43.46;13.11;101788.66;5054942;28;46807;-77
2023/10/09 13:16:23;;;;;;;;;4.25;4.25;;;;;43.57;13.77;101779.22;5046423;28;45417;-76
2023/10/09 13:19:05;;;;;;;;;5.50;3.25;;;;;43.50;13.79;101780.50;5076917;28;45575;-76
2023/10/09 13:21:34;;;;;;;;;7.50;5.25;;;;;43.32;14.32;101785.38;5076872;27;45533;-76
2023/10/09 13:24:02;;;;;;;;;4.25;4.00;;;;;43.06;13.93;101779.63;5076442;28;46098;-75
2023/10/09 13:26:29;;;;;;;;;1.25;1.25;;;;;42.67;14.28;101788.94;5075656;28;45426;-77
2023/10/09 13:28:56;;;;;;;;;3.25;3.25;;;;;42.33;15.00;101798.47;5057588;27;45410;-76
2023/10/09 13:31:26;;;;;;;;;6.25;4.00;;;;;42.02;14.84;101785.84;5076656;28;45290;-77
2023/10/09 13:33:55;;;;;;;;;4.00;4.00;;;;;41.54;14.75;101766.53;5075589;28;47157;-77
2023/10/09 13:38:55;;;;;;;;;5.00;5.00;;;;;41.07;15.16;101783.53;5076398;28;45473;-75
2023/10/09 13:41:21;;;;;;;;;4.25;4.25;;;;;40.95;15.84;101774.25;5076581;27;45575;-77
2023/10/09 13:43:46;;;;;;;;;4.00;3.50;;;;;40.80;15.91;101773.91;5076450;28;46139;-77
2023/10/09 13:46:13;;;;;;;;;4.50;4.50;;;;;40.58;16.53;101779.22;5075442;28;45450;-78
2023/10/09 13:48:43;;;;;;;;;5.00;5.00;;;;;40.26;16.54;101775.91;5076466;27;45406;-76
2023/10/09 13:51:13;;;;;;;;;4.50;4.50;;;;;40.02;16.91;101768.50;5076405;28;45343;-77
2023/10/09 13:53:44;;;;;;;;;8.50;6.00;;;;;39.92;16.85;101771.03;5072702;28;45416;-76
2023/10/09 13:56:20;;;;;;;;;6.00;4.50;;;;;39.78;16.61;101770.38;5072396;28;45362;-75
2023/10/09 13:58:54;;;;;;;;;5.75;4.50;;;;;39.60;17.16;101762.00;5076141;28;45245;-75
2023/10/09 14:01:26;;;;;;;;;6.00;6.00;;;;;39.14;17.50;101717.69;5075940;28;45393;-76
2023/10/09 14:03:54;;;;;;;;;5.00;5.00;;;;;39.16;18.05;101752.81;5076134;28;45389;-76
2023/10/09 14:06:30;;;;;;;;;6.00;6.00;;;;;39.10;17.89;101767.81;5057887;28;45371;-77
2023/10/09 14:08:56;;;;;;;;;6.25;5.25;;;;;38.86;18.21;101752.72;5076014;28;45326;-76
2023/10/09 14:11:21;;;;;;;;;7.00;5.50;;;;;38.75;17.72;101766.66;5076052;28;45410;-75
2023/10/09 14:13:48;;;;;;;;;4.50;4.50;;;;;38.57;18.40;101771.13;5075663;28;46799;-76
2023/10/09 14:16:23;;;;;;;;;9.00;6.00;;;;;38.51;18.63;101768.41;5075811;28;45355;-76
2023/10/09 14:18:56;;;;;;;;;6.75;6.00;;;;;38.39;18.28;101765.47;5066753;28;45327;-76
2023/10/09 14:21:26;;;;;;;;;9.00;5.50;;;;;38.31;18.44;101759.28;5075904;28;45486;-78
2023/10/09 14:23:56;;;;;;;;;7.00;5.50;;;;;38.26;18.43;101745.13;5075738;28;45347;-76
2023/10/09 14:26:25;;;;;;;;;4.25;3.00;;;;;38.17;19.06;101748.22;5075092;27;45394;-76
2023/10/09 14:28:52;;;;;;;;;7.00;7.00;;;;;38.07;19.08;101739.44;5075647;28;45339;-76
2023/10/09 14:31:20;;;;;;;;;5.25;4.00;;;;;38.01;19.24;101734.75;5075708;28;45525;-77
2023/10/09 14:33:51;;;;;;;;;5.50;5.50;;;;;38.07;18.54;101745.06;5075277;28;45578;-76
2023/10/09 14:36:18;;;;;;;;;4.00;4.00;;;;;38.14;19.57;101740.25;5075976;28;45185;-77
2023/10/09 14:38:46;;;;;;;;;4.25;4.25;;;;;38.24;19.55;101742.53;5057421;28;45380;-76
2023/10/09 14:41:12;;;;;;;;;5.25;5.25;;;;;38.22;19.46;101753.09;5075545;28;45379;-76
2023/10/09 14:43:38;;;;;;;;;6.00;5.75;;;;;38.18;19.30;101743.47;5075182;28;45334;-75
2023/10/09 14:46:10;;;;;;;;;5.00;5.00;;;;;38.13;19.59;101758.13;5072293;28;45767;-77
2023/10/09 14:48:37;;;;;;;;;9.25;8.00;;;;;38.01;19.94;101736.69;5062413;28;45426;-75
2023/10/09 14:51:06;;;;;;;;;6.25;6.25;;;;;37.97;19.74;101739.06;5075471;28;45452;-77
2023/10/09 14:53:35;;;;;;;;;5.00;4.25;;;;;37.98;19.72;101751.13;5073009;28;45359;-77
2023/10/09 14:56:08;;;;;;;;;4.25;4.25;;;;;38.07;19.39;101736.66;5051578;28;45551;-76
2023/10/09 14:58:34;;;;;;;;;7.25;6.00;;;;;38.14;19.48;101739.38;5055656;28;45528;-74
2023/10/09 15:01:09;;;;;;;;;6.50;5.75;;;;;38.25;18.04;101735.84;5074726;28;45588;-75
2023/10/09 15:03:37;;;;;;;;;7.00;5.50;;;;;38.24;18.68;101734.13;5074919;28;46034;-76
2023/10/09 15:06:03;;;;;;;;;5.50;5.00;;;;;38.31;17.49;101742.47;5074593;28;45413;-77
2023/10/09 15:08:29;;;;;;;;;7.75;5.00;;;;;38.29;17.71;101737.09;5074967;28;45338;-79
2023/10/09 15:10:58;;;;;;;;;6.50;5.00;;;;;38.19;17.86;101733.97;5056454;28;45790;-79
2023/10/09 15:13:27;;;;;;;;;5.25;3.75;;;;;38.08;18.12;101737.50;5074857;28;45435;-77
2023/10/09 15:15:54;;;;;;;;;6.75;6.00;;;;;38.04;18.17;101742.66;5061524;28;45605;-81
2023/10/09 15:18:21;;;;;;;;;5.25;4.25;;;;;37.83;18.40;101734.66;5067857;28;45440;-80
2023/10/09 15:20:48;;;;;;;;;8.25;5.50;;;;;37.69;18.28;101731.06;5075142;28;45217;-81
2023/10/09 15:23:14;;;;;;;;;5.75;5.75;;;;;37.68;18.83;101740.56;5075275;28;46227;-79
2023/10/09 15:25:42;;;;;;;;;4.75;4.75;;;;;37.86;18.17;101734.19;5075054;28;45228;-79
2023/10/09 15:28:09;;;;;;;;;5.00;5.00;;;;;37.88;17.43;101727.28;5075237;28;45489;-79
2023/10/09 15:30:37;;;;;;;;;6.00;5.00;;;;;37.99;17.37;101722.03;5074075;28;46020;-79
2023/10/09 15:33:07;;;;;;;;;5.50;4.25;;;;;38.06;17.44;101723.72;5074715;28;45326;-79
2023/10/09 15:35:36;;;;;;;;;4.50;4.50;;;;;38.14;18.24;101717.84;5074392;28;45406;-77
2023/10/09 15:38:03;;;;;;;;;5.75;5.75;;;;;38.18;17.75;101733.13;5055923;28;45547;-79
2023/10/09 15:40:33;;;;;;;;;2.00;2.00;;;;;38.08;17.87;101726.31;5074713;28;45303;-79
2023/10/09 15:42:59;;;;;;;;;4.00;4.00;;;;;38.08;17.81;101734.72;5074636;28;46090;-79
2023/10/09 15:45:28;;;;;;;;;5.25;3.75;;;;;38.04;17.26;101733.41;5072651;28;45472;-80
2023/10/09 15:47:54;;;;;;;;;5.25;5.25;;;;;38.04;17.24;101734.25;5070442;27;45401;-80
2023/10/09 15:50:25;;;;;;;;;4.75;4.75;;;;;37.92;17.50;101736.09;5074406;28;45516;-79
2023/10/09 15:52:54;;;;;;;;;5.00;4.00;;;;;37.90;17.99;101720.59;5074434;28;46086;-81
2023/10/09 15:55:24;;;;;;;;;9.25;6.00;;;;;37.93;17.22;101726.63;5066214;28;45344;-78
2023/10/09 15:57:52;;;;;;;;;4.25;4.25;;;;;37.77;17.55;101728.00;5056037;28;45529;-78
2023/10/09 16:00:18;;;;;;;;;7.25;4.25;;;;;37.56;17.39;101721.88;5074076;28;45467;-79
2023/10/09 16:02:52;;;;;;;;;4.00;4.00;;;;;37.55;18.18;101721.00;5055905;28;46975;-78
2023/10/09 16:05:18;;;;;;;;;5.25;5.25;;;;;37.63;18.05;101723.59;5073715;28;45323;-77
2023/10/09 16:07:44;;;;;;;;;6.50;4.50;;;;;37.50;18.48;101712.44;5066742;28;45570;-79
2023/10/09 16:10:12;;;;;;;;;6.25;6.25;;;;;37.54;18.05;101718.44;5065298;28;45639;-79
2023/10/09 16:12:38;;;;;;;;;6.75;6.75;;;;;37.46;18.28;101728.81;5056088;28;45535;-79
2023/10/09 16:15:08;;;;;;;;;7.25;7.25;;;;;37.36;18.64;101720.03;5074104;28;45377;-78
2023/10/09 16:17:34;;;;;;;;;5.75;5.75;;;;;37.24;19.62;101715.41;5056333;28;45379;-78
2023/10/09 16:20:00;;;;;;;;;5.25;5.00;;;;;37.16;18.71;101712.84;5074268;28;45619;-79
2023/10/09 16:22:28;;;;;;;;;6.75;6.00;;;;;37.05;19.29;101722.75;5073337;27;45481;-78
2023/10/09 16:24:59;;;;;;;;;6.25;6.00;;;;;36.92;19.60;101728.41;5043441;28;45345;-80
2023/10/09 16:27:24;;;;;;;;;6.00;6.00;;;;;36.86;19.70;101720.88;5073973;28;45343;-78
2023/10/09 16:29:51;;;;;;;;;9.25;6.00;;;;;36.62;19.94;101705.66;5073656;28;45508;-80
2023/10/09 16:32:21;;;;;;;;;7.25;6.00;;;;;36.60;20.34;101724.56;5073593;28;45346;-79
2023/10/09 16:34:48;;;;;;;;;10.50;8.50;;;;;36.51;20.64;101729.53;5073887;28;45363;-79
2023/10/09 16:37:14;;;;;;;;;7.25;5.75;;;;;36.38;20.50;101724.81;5073622;28;45497;-78
2023/10/09 16:39:39;;;;;;;;;9.50;7.25;;;;;36.20;21.03;101713.44;5074093;28;46877;-77
2023/10/09 16:42:05;;;;;;;;;7.00;7.00;;;;;36.14;20.92;101713.44;5074153;28;46127;-81
2023/10/09 16:44:36;;;;;;;;;7.00;7.00;;;;;35.98;21.31;101709.13;5055054;28;45414;-79
2023/10/09 16:47:04;;;;;;;;;10.25;7.00;;;;;35.86;21.74;101716.41;5073683;28;45544;-78
2023/10/09 16:49:30;;;;;;;;;10.75;9.00;;;;;35.68;21.73;101711.41;5073514;27;45597;-79
2023/10/09 16:51:57;;;;;;;;;11.75;9.25;;;;;35.36;21.84;101706.63;5073678;28;45240;-81
2023/10/09 16:54:23;;;;;;;;;8.75;7.00;;;;;35.41;22.43;101729.16;5065407;28;45378;-78
2023/10/09 16:56:51;;;;;;;;;9.25;9.25;;;;;35.38;22.47;101729.59;5055626;28;45359;-79
2023/10/09 16:59:16;;;;;;;;;8.00;8.00;;;;;35.14;22.90;101715.06;5055462;28;46298;-80
2023/10/09 17:01:46;;;;;;;;;16.00;12.00;;;;;34.97;22.80;101732.38;5073493;28;46165;-83
2023/10/09 17:04:16;;;;;;;;;11.00;10.00;;;;;34.90;22.85;101730.41;5073881;28;45460;-81
2023/10/09 17:06:44;;;;;;;;;9.50;9.50;;;;;34.84;22.83;101735.94;5073851;28;45444;-80
2023/10/09 17:09:12;;;;;;;;;11.00;9.25;;;;;34.51;22.90;101699.50;5074221;27;45589;-79
2023/10/09 17:11:39;;;;;;;;;13.50;12.75;;;;;34.64;23.30;101730.22;5073695;28;45541;-81
2023/10/09 17:14:05;;;;;;;;;8.00;8.00;;;;;34.56;23.05;101724.81;5073702;27;45346;-80
2023/10/09 17:16:31;;;;;;;;;14.75;9.50;;;;;34.31;23.40;101692.94;5064639;28;45394;-80
2023/10/09 17:18:59;;;;;;;;;11.75;10.50;;;;;34.35;22.98;101739.66;5055776;28;45339;-82
2023/10/09 17:21:25;;;;;;;;;7.00;7.00;;;;;34.31;22.67;101738.34;5055959;28;47150;-82
2023/10/09 17:23:58;;;;;;;;;8.75;8.75;;;;;34.27;22.76;101739.81;5076647;27;45425;-82
2023/10/09 17:26:24;;;;;;;;;10.50;9.75;;;;;34.04;23.27;101731.66;5076978;28;45374;-82
2023/10/09 17:28:53;;;;;;;;;13.75;12.75;;;;;33.93;23.24;101729.44;5076606;28;45617;-81
2023/10/09 17:31:23;;;;;;;;;12.50;8.75;;;;;33.80;23.10;101724.59;5076346;27;45483;-83
2023/10/09 17:33:50;;;;;;;;;8.50;8.50;;;;;33.78;23.57;101726.69;5077468;28;45504;-84
2023/10/09 17:36:19;;;;;;;;;9.00;9.00;;;;;33.74;23.47;101711.47;5073206;27;45860;-81
2023/10/09 17:38:51;;;;;;;;;14.75;12.00;;;;;33.71;23.79;101719.31;5076128;28;45588;-82
2023/10/09 17:41:17;;;;;;;;;12.25;12.25;;;;;33.58;24.88;101716.41;5069290;28;45429;-82
2023/10/09 17:43:43;;;;;;;;;10.25;10.25;;;;;33.50;24.55;101713.75;5071633;28;45458;-80
2023/10/09 17:46:11;;;;;;;;;12.00;9.75;;;;;33.41;25.05;101716.66;5038683;28;45338;-81
2023/10/09 17:48:37;;;;;;;;;14.25;12.75;;;;;33.48;26.16;101729.75;5076453;28;45337;-81
2023/10/09 17:51:08;;;;;;;;;16.00;14.50;;;;;33.36;26.28;101721.94;5076320;27;45514;-81
2023/10/09 17:53:38;;;;;;;;;12.50;12.50;;;;;33.27;25.63;101723.09;5073577;27;45489;-81
2023/10/09 17:56:10;;;;;;;;;12.25;11.00;;;;;33.14;26.19;101720.13;5070278;27;45236;-79
2023/10/09 17:58:35;;;;;;;;;16.00;13.25;;;;;33.13;26.36;101728.66;5051992;28;45382;-80
2023/10/09 18:01:06;;;;;;;;;16.00;15.25;;;;;33.13;26.44;101739.78;5068567;28;46365;-80
2023/10/09 18:03:31;;;;;;;;;14.75;12.50;;;;;33.05;26.63;101744.38;5070527;28;45231;-80
2023/10/09 18:05:57;;;;;;;;;17.50;15.75;;;;;32.95;27.05;101735.47;5055516;27;45343;-81
2023/10/09 18:08:25;;;;;;;;;22.25;20.00;;;;;32.93;26.60;101743.13;5076673;28;45438;-80
2023/10/09 18:10:57;;;;;;;;;18.25;17.25;;;;;32.80;26.95;101729.09;5070006;27;46090;-81
2023/10/09 18:13:24;;;;;;;;;20.50;17.75;;;;;32.84;27.18;101735.09;5072262;28;45490;-76
2023/10/09 18:16:07;;;;;;;;;19.00;15.00;;;;;32.85;27.39;101739.59;5067245;28;45699;-77
2023/10/09 18:18:33;;;;;;;;;15.25;14.50;;;;;32.72;27.12;101740.28;5073830;27;46062;-77
2023/10/09 18:20:58;;;;;;;;;14.25;13.50;;;;;32.57;27.36;101742.16;5075188;28;45468;-73
2023/10/09 18:23:23;;;;;;;;;14.25;14.25;;;;;32.60;28.37;101745.41;5076018;28;45358;-76
2023/10/09 18:25:58;;;;;;;;;16.50;15.25;;;;;32.65;28.11;101745.72;5074957;28;45623;-75
2023/10/09 18:28:25;;;;;;;;;17.75;16.00;;;;;32.59;28.36;101751.16;5065719;28;45699;-77
2023/10/09 18:30:51;;;;;;;;;16.75;15.50;;;;;32.58;28.53;101755.84;5075285;28;45385;-72
2023/10/09 18:33:17;;;;;;;;;15.75;14.75;;;;;32.43;28.58;101741.06;5077820;28;45535;-78
2023/10/09 18:35:43;;;;;;;;;21.50;18.75;;;;;32.45;28.25;101758.41;5057030;28;45401;-77
2023/10/09 18:38:09;;;;;;;;;16.50;14.25;;;;;32.44;28.51;101761.38;5075803;27;45555;-75
2023/10/09 18:40:36;;;;;;;;;18.00;17.25;;;;;32.36;28.20;101754.00;5075838;28;46877;-76
2023/10/09 18:43:08;;;;;;;;;20.50;18.25;;;;;32.32;28.80;101755.44;5075145;28;45440;-76
2023/10/09 18:45:38;;;;;;;;;21.50;19.00;;;;;32.20;28.86;101755.00;5070772;28;45567;-76
2023/10/09 18:48:08;;;;;;;;;19.75;19.75;;;;;32.18;29.02;101751.56;5069975;28;45585;-77
2023/10/09 18:50:41;;;;;;;;;19.25;16.50;;;;;32.18;28.65;101753.47;5055657;28;47924;-77
2023/10/09 18:53:09;;;;;;;;;19.75;19.75;;;;;32.20;28.83;101755.00;5074656;28;45389;-77
2023/10/09 18:55:36;;;;;;;;;15.75;14.00;;;;;32.21;28.73;101767.84;5074203;28;45536;-75
2023/10/09 18:58:02;;;;;;;;;19.75;19.25;;;;;32.17;28.81;101768.38;5073644;28;45532;-79
2023/10/09 19:00:30;;;;;;;;;21.25;18.25;;;;;32.09;29.47;101757.31;5074333;28;45547;-76